sensor_id;sensor_type;location;lat;lon;timestamp;P1;durP1;ratioP1;P2;durP2;ratioP2
52618;SDS011;38513;53.234;6.568;2024-03-08T00:02:25;55.17;;;36.20;;
52618;SDS011;38513;53.234;6.568;2024-03-08T00:04:58;60.13;;;38.58;;
52618;SDS011;38513;53.234;6.568;2024-03-08T00:07:40;61.53;;;38.60;;
52618;SDS011;38513;53.234;6.568;2024-03-08T00:10:12;58.17;;;38.50;;
52618;SDS011;38513;53.234;6.568;2024-03-08T00:19:06;62.05;;;41.33;;
52618;SDS011;38513;53.234;6.568;2024-03-08T00:22:23;59.85;;;39.22;;
52618;SDS011;38513;53.234;6.568;2024-03-08T00:47:48;62.95;;;40.08;;
52618;SDS011;38513;53.234;6.568;2024-03-08T01:05:39;61.83;;;37.58;;
52618;SDS011;38513;53.234;6.568;2024-03-08T07:11:33;40.10;;;25.73;;
52618;SDS011;38513;53.234;6.568;2024-03-08T08:23:27;39.78;;;27.38;;
52618;SDS011;38513;53.234;6.568;2024-03-08T08:26:15;39.92;;;26.92;;
52618;SDS011;38513;53.234;6.568;2024-03-08T08:32:20;41.13;;;27.60;;
52618;SDS011;38513;53.234;6.568;2024-03-08T08:42:52;37.90;;;27.95;;
52618;SDS011;38513;53.234;6.568;2024-03-08T08:48:56;39.38;;;27.45;;
52618;SDS011;38513;53.234;6.568;2024-03-08T09:10:13;38.50;;;26.70;;
52618;SDS011;38513;53.234;6.568;2024-03-08T10:08:30;32.53;;;24.95;;
52618;SDS011;38513;53.234;6.568;2024-03-08T17:29:40;31.00;;;22.90;;
52618;SDS011;38513;53.234;6.568;2024-03-08T17:32:23;29.65;;;23.48;;
52618;SDS011;38513;53.234;6.568;2024-03-08T17:41:53;31.25;;;23.38;;
52618;SDS011;38513;53.234;6.568;2024-03-08T17:48:22;30.00;;;23.40;;
52618;SDS011;38513;53.234;6.568;2024-03-08T17:53:43;30.70;;;24.17;;
52618;SDS011;38513;53.234;6.568;2024-03-08T17:59:55;34.25;;;23.80;;
52618;SDS011;38513;53.234;6.568;2024-03-08T18:03:06;31.40;;;24.67;;
52618;SDS011;38513;53.234;6.568;2024-03-08T18:12:05;31.73;;;24.13;;
52618;SDS011;38513;53.234;6.568;2024-03-08T18:14:55;33.92;;;24.40;;
52618;SDS011;38513;53.234;6.568;2024-03-08T18:17:42;32.40;;;23.65;;
52618;SDS011;38513;53.234;6.568;2024-03-08T18:20:44;32.25;;;23.92;;
52618;SDS011;38513;53.234;6.568;2024-03-08T18:23:23;33.05;;;24.52;;
52618;SDS011;38513;53.234;6.568;2024-03-08T18:26:09;34.70;;;24.73;;
52618;SDS011;38513;53.234;6.568;2024-03-08T18:28:50;32.30;;;24.33;;
52618;SDS011;38513;53.234;6.568;2024-03-08T18:31:23;32.30;;;24.67;;
52618;SDS011;38513;53.234;6.568;2024-03-08T18:34:01;33.58;;;25.40;;
52618;SDS011;38513;53.234;6.568;2024-03-08T18:39:49;31.77;;;25.07;;
52618;SDS011;38513;53.234;6.568;2024-03-08T18:42:28;33.42;;;25.02;;
52618;SDS011;38513;53.234;6.568;2024-03-08T18:45:21;33.42;;;24.90;;
52618;SDS011;38513;53.234;6.568;2024-03-08T18:48:06;32.65;;;25.40;;
52618;SDS011;38513;53.234;6.568;2024-03-08T18:50:40;34.33;;;25.30;;
52618;SDS011;38513;53.234;6.568;2024-03-08T18:53:28;34.08;;;25.13;;
52618;SDS011;38513;53.234;6.568;2024-03-08T18:56:14;33.25;;;24.65;;
52618;SDS011;38513;53.234;6.568;2024-03-08T18:58:51;33.83;;;24.98;;
52618;SDS011;38513;53.234;6.568;2024-03-08T19:04:34;34.35;;;25.75;;
52618;SDS011;38513;53.234;6.568;2024-03-08T19:07:06;34.75;;;26.00;;
52618;SDS011;38513;53.234;6.568;2024-03-08T19:09:36;34.93;;;25.67;;
52618;SDS011;38513;53.234;6.568;2024-03-08T19:12:05;35.70;;;26.75;;
52618;SDS011;38513;53.234;6.568;2024-03-08T19:14:43;32.72;;;24.65;;
52618;SDS011;38513;53.234;6.568;2024-03-08T19:21:03;34.22;;;25.10;;
52618;SDS011;38513;53.234;6.568;2024-03-08T19:23:53;33.83;;;25.20;;
52618;SDS011;38513;53.234;6.568;2024-03-08T19:26:28;33.27;;;24.50;;
52618;SDS011;38513;53.234;6.568;2024-03-08T19:29:08;34.42;;;24.55;;
52618;SDS011;38513;53.234;6.568;2024-03-08T19:31:48;32.45;;;24.45;;
52618;SDS011;38513;53.234;6.568;2024-03-08T19:34:36;32.17;;;23.73;;
52618;SDS011;38513;53.234;6.568;2024-03-08T19:37:29;32.33;;;23.98;;
52618;SDS011;38513;53.234;6.568;2024-03-08T19:39:57;33.83;;;25.17;;
52618;SDS011;38513;53.234;6.568;2024-03-08T19:42:35;33.30;;;23.58;;
52618;SDS011;38513;53.234;6.568;2024-03-08T19:45:04;34.38;;;24.95;;
52618;SDS011;38513;53.234;6.568;2024-03-08T19:47:40;30.65;;;23.92;;
52618;SDS011;38513;53.234;6.568;2024-03-08T19:50:29;34.13;;;24.70;;
52618;SDS011;38513;53.234;6.568;2024-03-08T19:53:08;33.15;;;24.80;;
52618;SDS011;38513;53.234;6.568;2024-03-08T19:55:38;34.13;;;24.90;;
52618;SDS011;38513;53.234;6.568;2024-03-08T19:58:31;32.70;;;24.33;;
52618;SDS011;38513;53.234;6.568;2024-03-08T20:04:31;31.58;;;24.38;;
52618;SDS011;38513;53.234;6.568;2024-03-08T20:07:12;34.97;;;25.70;;
52618;SDS011;38513;53.234;6.568;2024-03-08T20:09:56;35.40;;;26.43;;
52618;SDS011;38513;53.234;6.568;2024-03-08T20:15:55;31.98;;;24.60;;
52618;SDS011;38513;53.234;6.568;2024-03-08T21:09:37;34.05;;;24.45;;
52618;SDS011;38513;53.234;6.568;2024-03-08T21:16:15;31.98;;;23.10;;
52618;SDS011;38513;53.234;6.568;2024-03-08T21:18:54;31.63;;;23.60;;
52618;SDS011;38513;53.234;6.568;2024-03-08T21:21:24;32.58;;;23.35;;
52618;SDS011;38513;53.234;6.568;2024-03-08T21:24:29;33.20;;;23.75;;
52618;SDS011;38513;53.234;6.568;2024-03-08T21:27:04;32.10;;;23.35;;
52618;SDS011;38513;53.234;6.568;2024-03-08T21:29:48;33.83;;;23.13;;
52618;SDS011;38513;53.234;6.568;2024-03-08T21:32:33;34.35;;;24.63;;
52618;SDS011;38513;53.234;6.568;2024-03-08T21:35:05;35.13;;;24.45;;
52618;SDS011;38513;53.234;6.568;2024-03-08T21:38:10;31.23;;;22.90;;
52618;SDS011;38513;53.234;6.568;2024-03-08T21:47:37;33.00;;;23.65;;
52618;SDS011;38513;53.234;6.568;2024-03-08T21:57:20;32.92;;;24.52;;
52618;SDS011;38513;53.234;6.568;2024-03-08T22:06:37;34.67;;;24.13;;
52618;SDS011;38513;53.234;6.568;2024-03-08T22:09:22;33.77;;;23.97;;
52618;SDS011;38513;53.234;6.568;2024-03-08T22:11:51;34.03;;;23.83;;
52618;SDS011;38513;53.234;6.568;2024-03-08T22:17:14;33.78;;;23.48;;
52618;SDS011;38513;53.234;6.568;2024-03-08T22:19:47;33.40;;;23.60;;
52618;SDS011;38513;53.234;6.568;2024-03-08T22:22:16;33.42;;;23.77;;
52618;SDS011;38513;53.234;6.568;2024-03-08T22:25:03;31.03;;;23.50;;
52618;SDS011;38513;53.234;6.568;2024-03-08T22:27:53;34.20;;;24.10;;
52618;SDS011;38513;53.234;6.568;2024-03-08T22:30:23;36.25;;;24.60;;
52618;SDS011;38513;53.234;6.568;2024-03-08T22:33:03;34.17;;;23.60;;
52618;SDS011;38513;53.234;6.568;2024-03-08T22:35:41;36.30;;;24.57;;
52618;SDS011;38513;53.234;6.568;2024-03-08T22:38:28;34.70;;;23.90;;
52618;SDS011;38513;53.234;6.568;2024-03-08T22:41:13;34.58;;;23.08;;
52618;SDS011;38513;53.234;6.568;2024-03-08T22:43:58;34.05;;;23.33;;
52618;SDS011;38513;53.234;6.568;2024-03-08T22:46:47;34.30;;;24.35;;
52618;SDS011;38513;53.234;6.568;2024-03-08T22:49:41;35.17;;;23.90;;
52618;SDS011;38513;53.234;6.568;2024-03-08T22:52:25;33.92;;;23.80;;
52618;SDS011;38513;53.234;6.568;2024-03-08T22:55:02;33.38;;;23.45;;
52618;SDS011;38513;53.234;6.568;2024-03-08T23:01:23;33.88;;;22.95;;
52618;SDS011;38513;53.234;6.568;2024-03-08T23:04:12;32.42;;;22.23;;
52618;SDS011;38513;53.234;6.568;2024-03-08T23:06:49;33.45;;;22.25;;
52618;SDS011;38513;53.234;6.568;2024-03-08T23:09:26;33.17;;;23.13;;
52618;SDS011;38513;53.234;6.568;2024-03-08T23:12:05;34.40;;;24.00;;
52618;SDS011;38513;53.234;6.568;2024-03-08T23:14:39;35.35;;;23.17;;
52618;SDS011;38513;53.234;6.568;2024-03-08T23:17:08;34.33;;;23.27;;
52618;SDS011;38513;53.234;6.568;2024-03-08T23:19:51;34.17;;;23.27;;
52618;SDS011;38513;53.234;6.568;2024-03-08T23:22:50;34.37;;;23.50;;
52618;SDS011;38513;53.234;6.568;2024-03-08T23:25:22;34.83;;;24.13;;
52618;SDS011;38513;53.234;6.568;2024-03-08T23:34:12;33.23;;;23.00;;
52618;SDS011;38513;53.234;6.568;2024-03-08T23:37:10;34.53;;;23.65;;
52618;SDS011;38513;53.234;6.568;2024-03-08T23:46:23;34.80;;;22.98;;
52618;SDS011;38513;53.234;6.568;2024-03-08T23:56:45;35.70;;;23.50;;
52618;SDS011;38513;53.234;6.568;2024-03-08T23:59:25;33.40;;;22.73;;
